Time;durP1;ratioP1;P1;durP2;ratioP2;P2;SDS_P1;SDS_P2;PMS_P1;PMS_P2;Temp;Humidity;BMP_temperature;BMP_pressure;BME280_temperature;BME280_humidity;BME280_pressure;Samples;Min_cycle;Max_cycle;Signal;HPM_P1;HPM_P2
2023/05/28 00:01:15;;;;;;;8.17;4.17;;;9.20;99.90;;;;;;5072002;28;20578;-94
2023/05/28 00:03:42;;;;;;;5.77;4.13;;;9.20;99.90;;;;;;5065327;28;20219;-94
2023/05/28 00:06:10;;;;;;;7.03;4.00;;;9.20;99.90;;;;;;5058326;28;20574;-93
2023/05/28 00:08:38;;;;;;;7.43;4.10;;;9.10;99.90;;;;;;5057121;28;20200;-93
2023/05/28 00:11:05;;;;;;;6.93;3.60;;;9.10;99.90;;;;;;5057344;28;20205;-93
2023/05/28 00:13:31;;;;;;;6.40;3.70;;;9.10;99.90;;;;;;5057286;28;20192;-93
2023/05/28 00:15:58;;;;;;;8.07;4.60;;;9.00;99.90;;;;;;5066757;28;20201;-92
2023/05/28 00:18:28;;;;;;;7.77;4.00;;;9.00;99.90;;;;;;5056896;28;20202;-93
2023/05/28 00:20:55;;;;;;;8.37;5.20;;;8.90;99.90;;;;;;5056691;28;20202;-92
2023/05/28 00:23:23;;;;;;;7.30;4.83;;;8.90;99.90;;;;;;5067043;28;20232;-92
2023/05/28 00:25:51;;;;;;;7.93;4.60;;;8.90;1.00;;;;;;5066628;28;20205;-93
2023/05/28 00:28:18;;;;;;;11.37;5.30;;;8.90;1.00;;;;;;5057411;28;20232;-92
2023/05/28 00:30:45;;;;;;;9.93;4.60;;;8.90;1.00;;;;;;5072275;28;20201;-93
2023/05/28 00:33:11;;;;;;;7.93;4.43;;;8.90;1.00;;;;;;5062046;28;20196;-93
2023/05/28 00:35:38;;;;;;;11.33;5.20;;;8.90;1.00;;;;;;5076595;28;20659;-93
2023/05/28 00:38:05;;;;;;;6.53;4.47;;;8.90;1.00;;;;;;5071363;28;20205;-93
2023/05/28 00:40:33;;;;;;;9.23;4.70;;;8.80;1.00;;;;;;5056867;28;20209;-92
2023/05/28 00:43:00;;;;;;;7.60;4.70;;;8.80;1.00;;;;;;5060638;28;20213;-93
2023/05/28 00:45:27;;;;;;;9.50;4.40;;;8.70;1.00;;;;;;5058003;28;20619;-92
2023/05/28 00:47:54;;;;;;;9.10;5.40;;;8.60;1.00;;;;;;5068316;28;20226;-93
2023/05/28 00:50:21;;;;;;;9.00;5.80;;;8.60;1.00;;;;;;5058132;28;20201;-93
2023/05/28 00:52:50;;;;;;;8.87;5.57;;;8.50;1.00;;;;;;5059086;28;20193;-93
2023/05/28 00:55:18;;;;;;;7.47;5.10;;;8.40;1.00;;;;;;5066645;28;20193;-93
2023/05/28 00:57:48;;;;;;;11.30;4.97;;;8.30;1.00;;;;;;5066858;28;20193;-93
2023/05/28 01:00:16;;;;;;;6.73;4.77;;;8.20;1.00;;;;;;5056651;28;20250;-93
2023/05/28 01:02:44;;;;;;;8.70;4.77;;;8.10;1.00;;;;;;5055979;28;20266;-93
2023/05/28 01:05:10;;;;;;;7.33;5.03;;;8.10;1.00;;;;;;5061294;28;20207;-92
2023/05/28 01:07:38;;;;;;;6.90;4.90;;;8.00;41.20;;;;;;5075287;28;20205;-92
2023/05/28 01:10:06;;;;;;;9.57;4.90;;;8.00;99.90;;;;;;5055808;28;20202;-93
2023/05/28 01:12:35;;;;;;;9.77;4.83;;;7.90;99.90;;;;;;5055738;28;20186;-93
2023/05/28 01:15:03;;;;;;;7.87;4.33;;;7.90;99.90;;;;;;5067369;28;20665;-93
2023/05/28 01:17:31;;;;;;;6.77;4.30;;;7.80;99.90;;;;;;5056777;28;20219;-92
2023/05/28 01:20:05;;;;;;;8.47;4.93;;;7.80;99.90;;;;;;5071288;28;20214;-92
2023/05/28 01:22:38;;;;;;;7.23;4.70;;;7.70;99.90;;;;;;5075128;28;20216;-93
2023/05/28 01:25:09;;;;;;;8.30;4.67;;;7.70;99.90;;;;;;5055755;28;20254;-93
2023/05/28 01:27:38;;;;;;;7.60;4.23;;;7.70;99.90;;;;;;5055283;28;20193;-93
2023/05/28 01:30:09;;;;;;;7.87;4.50;;;7.60;99.90;;;;;;5066668;28;20202;-92
2023/05/28 01:32:36;;;;;;;6.90;4.70;;;7.60;99.90;;;;;;5055991;28;20197;-92
2023/05/28 01:35:03;;;;;;;6.03;4.27;;;7.50;99.90;;;;;;5054759;28;20214;-92
2023/05/28 01:37:30;;;;;;;8.03;4.03;;;7.50;1.00;;;;;;5055195;28;20208;-92
2023/05/28 01:39:58;;;;;;;7.30;3.70;;;7.50;1.00;;;;;;5055617;28;20211;-93
2023/05/28 01:42:28;;;;;;;9.07;4.37;;;7.40;1.00;;;;;;5057114;28;20256;-92
2023/05/28 01:44:55;;;;;;;7.67;4.20;;;7.40;1.00;;;;;;5063630;28;20204;-92
2023/05/28 01:47:23;;;;;;;7.10;3.77;;;7.40;1.00;;;;;;5066141;28;20212;-92
2023/05/28 01:49:50;;;;;;;7.73;4.23;;;7.30;1.00;;;;;;5054578;28;20567;-92
2023/05/28 01:52:17;;;;;;;7.47;4.37;;;7.30;1.00;;;;;;5055299;28;20199;-93
2023/05/28 01:54:44;;;;;;;5.73;3.90;;;7.30;1.00;;;;;;5056221;28;20200;-92
2023/05/28 01:57:11;;;;;;;6.67;3.93;;;7.20;1.00;;;;;;5055442;28;20199;-93
2023/05/28 01:59:39;;;;;;;8.13;4.00;;;7.20;1.00;;;;;;5055124;28;20211;-92
2023/05/28 02:02:08;;;;;;;7.13;4.53;;;7.10;1.00;;;;;;5069497;28;20192;-93
2023/05/28 02:04:35;;;;;;;6.53;4.10;;;7.10;1.00;;;;;;5054756;28;20254;-93
2023/05/28 02:07:01;;;;;;;8.23;4.13;;;7.00;1.00;;;;;;5054767;28;20552;-92
2023/05/28 02:09:28;;;;;;;6.33;4.27;;;7.00;1.00;;;;;;5068694;28;20206;-92
2023/05/28 02:11:56;;;;;;;9.43;4.40;;;6.90;1.00;;;;;;5074906;28;20208;-92
2023/05/28 02:14:23;;;;;;;7.40;4.43;;;6.90;1.00;;;;;;5074790;28;20195;-92
2023/05/28 02:16:52;;;;;;;6.97;4.40;;;6.90;1.00;;;;;;5074590;28;20205;-93
2023/05/28 02:19:19;;;;;;;7.57;4.13;;;6.80;1.00;;;;;;5074812;28;20203;-92
2023/05/28 02:21:46;;;;;;;7.73;4.13;;;6.80;1.00;;;;;;5055693;28;20226;-92
2023/05/28 02:24:13;;;;;;;7.20;4.10;;;6.80;11.70;;;;;;5059173;28;20214;-93
2023/05/28 02:26:40;;;;;;;7.87;4.27;;;6.70;1.00;;;;;;5074708;28;20209;-92
2023/05/28 02:29:07;;;;;;;7.20;4.20;;;6.70;14.20;;;;;;5074520;28;20202;-92
2023/05/28 02:31:34;;;;;;;6.73;4.00;;;6.70;8.00;;;;;;5074700;28;20202;-92
2023/05/28 02:34:02;;;;;;;5.80;4.23;;;6.70;14.20;;;;;;5055918;28;20206;-93
2023/05/28 02:36:29;;;;;;;8.43;4.53;;;6.70;93.30;;;;;;5054419;28;20664;-92
2023/05/28 02:38:56;;;;;;;5.13;4.10;;;6.70;94.80;;;;;;5061575;28;20200;-92
2023/05/28 02:41:23;;;;;;;5.73;4.27;;;6.70;99.90;;;;;;5069380;28;20202;-93
2023/05/28 02:43:50;;;;;;;7.47;4.10;;;6.70;99.90;;;;;;5054067;28;20222;-92
2023/05/28 02:46:17;;;;;;;8.13;3.87;;;6.70;99.90;;;;;;5054606;28;20202;-93
2023/05/28 02:48:44;;;;;;;7.37;4.90;;;6.80;99.90;;;;;;5055467;28;20203;-92
2023/05/28 02:51:12;;;;;;;5.77;4.00;;;6.80;99.90;;;;;;5054106;28;20203;-92
2023/05/28 02:53:39;;;;;;;7.40;4.17;;;6.80;99.90;;;;;;5054670;28;20187;-93
2023/05/28 02:56:06;;;;;;;6.43;4.60;;;6.80;99.90;;;;;;5071631;28;20203;-91
2023/05/28 02:58:33;;;;;;;7.17;4.63;;;6.90;99.90;;;;;;5054492;28;20211;-92
2023/05/28 03:01:00;;;;;;;8.17;4.27;;;6.90;99.90;;;;;;5054128;28;20193;-92
2023/05/28 03:03:26;;;;;;;7.47;4.50;;;6.90;99.90;;;;;;5054020;28;20723;-94
2023/05/28 03:05:53;;;;;;;6.37;4.47;;;6.90;99.90;;;;;;5054347;28;20593;-93
2023/05/28 03:08:21;;;;;;;7.87;4.60;;;7.00;99.90;;;;;;5054379;28;20199;-92
2023/05/28 03:10:48;;;;;;;7.10;4.33;;;7.00;99.90;;;;;;5054257;28;20245;-92
2023/05/28 03:13:15;;;;;;;8.60;4.53;;;7.00;99.90;;;;;;5053925;28;20196;-93
2023/05/28 03:15:42;;;;;;;8.07;4.13;;;7.00;99.90;;;;;;5053762;28;20198;-93
2023/05/28 03:18:08;;;;;;;7.73;4.33;;;7.10;99.90;;;;;;5053965;28;20214;-93
2023/05/28 03:20:35;;;;;;;6.83;4.53;;;7.10;99.90;;;;;;5058032;28;20200;-93
2023/05/28 03:23:02;;;;;;;5.57;3.90;;;7.10;99.90;;;;;;5055810;28;20323;-93
2023/05/28 03:25:30;;;;;;;8.37;4.53;;;7.20;99.90;;;;;;5054152;28;20210;-92
2023/05/28 03:27:57;;;;;;;7.80;4.60;;;7.20;99.90;;;;;;5069658;28;20195;-92
2023/05/28 03:30:24;;;;;;;8.73;5.33;;;7.20;99.90;;;;;;5074109;28;20570;-91
2023/05/28 03:32:51;;;;;;;13.67;4.87;;;7.20;99.90;;;;;;5072222;28;20211;-92
2023/05/28 03:35:18;;;;;;;8.03;4.60;;;7.20;99.90;;;;;;5067832;28;20573;-91
2023/05/28 03:37:45;;;;;;;7.17;4.93;;;7.20;99.90;;;;;;5069954;28;20196;-92
2023/05/28 03:40:13;;;;;;;8.57;5.23;;;7.30;99.90;;;;;;5058049;28;20204;-92
2023/05/28 03:42:41;;;;;;;10.90;5.30;;;7.30;99.90;;;;;;5066053;28;20632;-93
2023/05/28 03:45:08;;;;;;;7.37;4.90;;;7.30;99.90;;;;;;5077866;28;20211;-93
2023/05/28 03:47:35;;;;;;;7.73;4.83;;;7.40;99.90;;;;;;5069110;28;20211;-92
2023/05/28 03:50:04;;;;;;;8.13;5.00;;;7.50;99.90;;;;;;5058682;28;20611;-92
2023/05/28 03:52:31;;;;;;;7.97;5.13;;;7.50;99.90;;;;;;5077393;28;20783;-93
2023/05/28 03:54:57;;;;;;;9.17;4.83;;;7.80;1.00;;;;;;5077305;28;20646;-92
2023/05/28 03:57:24;;;;;;;7.90;4.87;;;8.30;1.00;;;;;;5064059;28;20193;-93
2023/05/28 03:59:55;;;;;;;7.50;4.80;;;9.00;1.00;;;;;;5072724;28;20247;-93
2023/05/28 04:02:22;;;;;;;9.13;4.80;;;9.60;1.00;;;;;;5064982;28;20194;-92
2023/05/28 04:04:49;;;;;;;7.10;4.33;;;10.30;99.90;;;;;;5057539;28;20223;-93
2023/05/28 04:07:16;;;;;;;6.33;4.23;;;10.80;1.00;;;;;;5057274;28;20200;-93
2023/05/28 04:09:42;;;;;;;6.63;4.20;;;11.40;1.00;;;;;;5057007;28;20205;-93
2023/05/28 04:12:10;;;;;;;5.67;4.03;;;11.80;99.90;;;;;;5070431;28;20223;-93
2023/05/28 04:14:37;;;;;;;10.37;4.60;;;12.20;1.00;;;;;;5056715;28;20257;-93
2023/05/28 04:17:05;;;;;;;5.33;4.30;;;12.50;1.00;;;;;;5056858;28;20208;-93
2023/05/28 04:19:32;;;;;;;10.00;4.57;;;12.70;1.00;;;;;;5056791;28;20204;-92
2023/05/28 04:21:59;;;;;;;5.50;4.00;;;12.90;1.00;;;;;;5056700;28;20228;-93
2023/05/28 04:24:25;;;;;;;7.20;4.67;;;13.10;99.90;;;;;;5056937;28;20226;-92
2023/05/28 04:26:53;;;;;;;5.53;4.13;;;13.40;99.90;;;;;;5067688;28;20217;-92
2023/05/28 04:29:23;;;;;;;6.37;4.63;;;13.70;99.90;;;;;;5077002;28;20213;-92
2023/05/28 04:31:50;;;;;;;6.73;4.50;;;13.90;99.90;;;;;;5075951;28;20231;-93
2023/05/28 04:34:19;;;;;;;6.10;4.60;;;14.10;82.10;;;;;;5064830;28;20200;-92
2023/05/28 04:36:48;;;;;;;9.30;4.40;;;14.40;16.60;;;;;;5070133;28;20201;-93
2023/05/28 04:39:14;;;;;;;7.30;4.83;;;14.60;1.00;;;;;;5076934;28;20192;-93
2023/05/28 04:41:43;;;;;;;6.33;4.37;;;14.90;1.00;;;;;;5076464;28;20199;-93
2023/05/28 04:44:10;;;;;;;6.60;4.60;;;15.20;1.00;;;;;;5076680;28;20256;-93
2023/05/28 04:46:36;;;;;;;7.15;4.60;;;15.50;1.00;;;;;;5076393;28;20189;-93
2023/05/28 04:49:04;;;;;;;6.78;4.65;;;15.80;1.00;;;;;;5055359;28;20207;-94
2023/05/28 04:51:32;;;;;;;7.78;4.50;;;16.20;1.00;;;;;;5063590;28;20616;-93
2023/05/28 04:53:59;;;;;;;5.95;3.88;;;16.50;1.00;;;;;;5076363;28;20193;-93
2023/05/28 04:56:26;;;;;;;9.43;4.25;;;16.60;1.00;;;;;;5070058;28;20190;-94
2023/05/28 04:58:53;;;;;;;9.18;4.30;;;16.60;1.00;;;;;;5069317;28;20284;-94
2023/05/28 05:01:19;;;;;;;6.82;4.60;;;16.40;1.00;;;;;;5076228;28;20203;-94
2023/05/28 05:03:46;;;;;;;5.38;4.20;;;16.20;1.00;;;;;;5062998;28;20306;-95
2023/05/28 05:06:13;;;;;;;5.38;4.03;;;15.90;1.00;;;;;;5068726;28;20187;-92
2023/05/28 05:08:41;;;;;;;6.30;4.43;;;15.70;1.00;;;;;;5075998;28;20581;-95
2023/05/28 05:11:08;;;;;;;8.10;4.70;;;15.50;1.00;;;;;;5075946;28;20191;-94
2023/05/28 05:13:35;;;;;;;7.70;4.50;;;15.20;1.00;;;;;;5075958;28;20203;-93
2023/05/28 05:16:02;;;;;;;7.80;4.70;;;15.00;1.00;;;;;;5059655;28;20577;-95
2023/05/28 05:18:29;;;;;;;9.27;4.40;;;14.80;1.00;;;;;;5055910;28;20286;-94
2023/05/28 05:20:57;;;;;;;8.97;4.80;;;14.60;1.00;;;;;;5064891;28;20206;-94
2023/05/28 05:23:24;;;;;;;7.07;5.07;;;14.60;1.00;;;;;;5070963;28;20283;-94
2023/05/28 05:25:52;;;;;;;6.73;4.57;;;14.50;1.00;;;;;;5073235;28;20195;-94
2023/05/28 05:28:18;;;;;;;7.47;4.80;;;14.50;1.00;;;;;;5055713;28;20199;-93
2023/05/28 05:30:45;;;;;;;6.30;4.30;;;14.40;1.00;;;;;;5060077;28;20670;-93
2023/05/28 05:33:12;;;;;;;7.87;4.70;;;14.50;1.00;;;;;;5055661;28;20681;-94
2023/05/28 05:35:39;;;;;;;6.70;4.67;;;14.50;1.00;;;;;;5055247;28;20658;-94
2023/05/28 05:38:06;;;;;;;6.63;4.13;;;14.60;1.00;;;;;;5055444;28;20705;-93
2023/05/28 05:40:33;;;;;;;7.30;4.47;;;14.70;1.00;;;;;;5067452;28;20210;-94
2023/05/28 05:43:01;;;;;;;7.07;4.80;;;14.70;68.20;;;;;;5068832;28;20202;-95
2023/05/28 05:45:28;;;;;;;9.00;4.73;;;14.80;99.90;;;;;;5055491;28;20216;-95
2023/05/28 05:47:55;;;;;;;5.33;4.27;;;15.00;99.90;;;;;;5055276;28;20194;-95
2023/05/28 05:50:22;;;;;;;27.33;18.10;;;15.10;99.90;;;;;;5057274;28;20199;-94
2023/05/28 05:52:49;;;;;;;8.80;4.20;;;15.30;18.70;;;;;;5075450;28;20658;-94
2023/05/28 05:55:16;;;;;;;5.67;3.60;;;15.50;1.00;;;;;;5055112;28;20277;-95
2023/05/28 05:57:43;;;;;;;6.15;3.20;;;15.60;1.00;;;;;;5055294;28;20206;-95
2023/05/28 06:00:13;;;;;;;4.03;2.80;;;15.80;1.00;;;;;;5058967;28;20249;-95
2023/05/28 06:02:41;;;;;;;7.57;3.22;;;15.90;1.00;;;;;;5074908;28;20201;-93
2023/05/28 06:05:08;;;;;;;6.25;3.00;;;16.00;1.00;;;;;;5061787;28;20208;-94
2023/05/28 06:07:35;;;;;;;5.00;2.90;;;16.20;1.00;;;;;;5062861;28;20193;-92
2023/05/28 06:10:02;;;;;;;5.88;3.13;;;16.20;99.90;;;;;;5073735;28;20636;-93
2023/05/28 06:12:28;;;;;;;6.32;2.80;;;16.30;99.90;;;;;;5060228;28;20203;-93
2023/05/28 06:14:55;;;;;;;4.20;2.97;;;16.40;99.90;;;;;;5055007;28;20193;-94
2023/05/28 06:17:23;;;;;;;5.82;2.78;;;16.50;99.90;;;;;;5055046;28;20609;-93
2023/05/28 06:19:50;;;;;;;4.65;2.58;;;16.60;99.90;;;;;;5054602;28;20196;-94
2023/05/28 06:22:17;;;;;;;8.15;2.58;;;16.70;99.90;;;;;;5054448;28;20727;-94
2023/05/28 06:24:44;;;;;;;4.63;2.65;;;16.80;99.90;;;;;;5054513;28;20230;-93
2023/05/28 06:27:11;;;;;;;3.38;2.80;;;16.90;99.90;;;;;;5055009;28;20208;-93
2023/05/28 06:29:38;;;;;;;5.35;2.88;;;17.00;99.90;;;;;;5056799;28;20662;-94
2023/05/28 06:32:05;;;;;;;3.85;2.60;;;17.10;99.90;;;;;;5058330;28;20195;-95
2023/05/28 06:34:33;;;;;;;5.10;2.92;;;17.20;99.90;;;;;;5058070;28;20200;-93
2023/05/28 06:37:00;;;;;;;6.07;2.80;;;17.30;99.90;;;;;;5060351;28;20199;-94
2023/05/28 06:39:28;;;;;;;3.92;2.75;;;17.50;99.90;;;;;;5065047;28;20192;-95
2023/05/28 06:41:54;;;;;;;4.38;2.72;;;17.60;99.90;;;;;;5074340;28;20678;-94
2023/05/28 06:44:21;;;;;;;2.67;1.92;;;17.80;99.90;;;;;;5074792;28;20222;-94
2023/05/28 06:46:48;;;;;;;5.15;2.40;;;17.90;99.90;;;;;;5072876;28;20198;-93
2023/05/28 06:49:15;;;;;;;6.40;2.67;;;17.90;99.90;;;;;;5060102;28;20197;-93
2023/05/28 06:51:43;;;;;;;9.30;2.60;;;18.00;99.90;;;;;;5057542;28;20200;-93
2023/05/28 06:54:10;;;;;;;3.55;2.40;;;18.10;99.90;;;;;;5056037;28;20272;-93
2023/05/28 06:56:37;;;;;;;3.70;2.90;;;18.20;99.90;;;;;;5062350;28;20265;-92
2023/05/28 06:59:03;;;;;;;6.22;2.35;;;18.30;99.90;;;;;;5068621;28;20203;-92
2023/05/28 07:01:30;;;;;;;3.70;2.40;;;18.40;99.90;;;;;;5054993;28;20211;-93
2023/05/28 07:03:57;;;;;;;7.53;2.72;;;18.40;99.90;;;;;;5067156;28;20279;-93
2023/05/28 07:06:24;;;;;;;5.65;2.65;;;18.50;99.90;;;;;;5062396;28;20193;-93
2023/05/28 07:08:53;;;;;;;4.65;2.50;;;18.60;99.90;;;;;;5054184;28;20208;-94
2023/05/28 07:11:19;;;;;;;4.53;2.20;;;18.70;99.90;;;;;;5065242;28;20192;-94
2023/05/28 07:13:46;;;;;;;7.55;2.78;;;18.90;99.90;;;;;;5077178;28;20203;-94
2023/05/28 07:16:13;;;;;;;2.83;1.92;;;18.90;99.90;;;;;;5058554;28;20247;-94
2023/05/28 07:18:40;;;;;;;2.78;2.10;;;18.90;99.90;;;;;;5058383;28;20196;-93
2023/05/28 07:21:07;;;;;;;6.60;2.50;;;19.00;99.90;;;;;;5058006;28;20232;-94
2023/05/28 07:23:34;;;;;;;4.18;1.92;;;19.20;99.90;;;;;;5061398;28;20184;-94
2023/05/28 07:26:02;;;;;;;5.25;1.70;;;19.20;99.90;;;;;;5078027;28;20218;-94
2023/05/28 07:28:28;;;;;;;3.17;1.80;;;19.40;99.90;;;;;;5077924;28;20198;-94
2023/05/28 07:30:56;;;;;;;4.07;1.95;;;19.40;99.90;;;;;;5073815;28;20666;-93
2023/05/28 07:33:23;;;;;;;4.28;2.10;;;19.40;99.90;;;;;;5078068;28;20204;-94
2023/05/28 07:35:49;;;;;;;2.95;1.92;;;19.40;99.90;;;;;;5066827;28;20195;-94
2023/05/28 07:38:16;;;;;;;2.85;1.52;;;19.40;99.90;;;;;;5077674;28;20195;-92
2023/05/28 07:40:43;;;;;;;5.68;1.70;;;19.50;99.90;;;;;;5062904;28;20340;-93
2023/05/28 07:43:11;;;;;;;2.47;1.70;;;19.60;99.90;;;;;;5057559;28;20663;-95
2023/05/28 07:45:38;;;;;;;9.90;2.22;;;19.60;99.90;;;;;;5073413;28;20753;-95
2023/05/28 07:48:05;;;;;;;3.47;1.92;;;19.70;99.90;;;;;;5077531;28;20257;-95
2023/05/28 07:50:32;;;;;;;4.57;1.83;;;19.80;99.90;;;;;;5077986;28;20200;-95
2023/05/28 07:52:58;;;;;;;5.80;2.00;;;19.90;98.80;;;;;;5076962;28;20188;-94
2023/05/28 07:55:25;;;;;;;2.70;1.90;;;19.90;95.60;;;;;;5072788;28;20553;-94
2023/05/28 07:57:52;;;;;;;6.10;1.80;;;19.90;93.30;;;;;;5057438;28;20193;-95
2023/05/28 08:00:20;;;;;;;5.30;1.98;;;20.00;91.30;;;;;;5060303;28;20197;-96
2023/05/28 08:02:48;;;;;;;5.63;1.85;;;20.10;84.50;;;;;;5077850;28;20200;-94
2023/05/28 08:05:15;;;;;;;6.47;1.98;;;20.20;90.10;;;;;;5072469;28;20221;-94
2023/05/28 08:07:41;;;;;;;4.32;1.65;;;20.20;86.10;;;;;;5068853;28;20203;-94
2023/05/28 08:10:08;;;;;;;4.65;1.90;;;20.20;79.30;;;;;;5078290;28;20206;-95
2023/05/28 08:12:35;;;;;;;5.43;2.00;;;20.30;67.60;;;;;;5079084;28;20215;-92
2023/05/28 08:15:02;;;;;;;3.17;1.80;;;20.30;69.30;;;;;;5078045;28;20196;-94
2023/05/28 08:17:32;;;;;;;3.20;1.70;;;20.40;65.20;;;;;;5078189;28;20196;-94
2023/05/28 08:19:59;;;;;;;4.68;1.77;;;20.50;63.70;;;;;;5059033;28;20204;-93
2023/05/28 08:22:26;;;;;;;9.02;1.80;;;20.60;64.20;;;;;;5057062;28;20220;-89
2023/05/28 08:24:52;;;;;;;7.47;1.73;;;20.60;61.90;;;;;;5075616;28;20239;-91
2023/05/28 08:27:20;;;;;;;2.58;1.50;;;20.70;61.50;;;;;;5070626;28;20203;-95
2023/05/28 08:29:47;;;;;;;2.22;1.48;;;20.70;59.00;;;;;;5060253;28;20242;-93
2023/05/28 08:32:13;;;;;;;3.40;2.28;;;20.80;52.50;;;;;;5062364;28;20196;-94
2023/05/28 08:34:42;;;;;;;8.85;1.95;;;20.80;51.50;;;;;;5060488;28;20280;-92
2023/05/28 08:37:08;;;;;;;6.93;1.90;;;20.80;53.10;;;;;;5057098;28;20659;-92
2023/05/28 08:39:35;;;;;;;3.15;1.73;;;20.80;50.30;;;;;;5057346;28;20228;-91
2023/05/28 08:42:02;;;;;;;3.97;1.90;;;20.90;50.80;;;;;;5056809;28;20193;-94
2023/05/28 08:44:29;;;;;;;9.57;1.83;;;21.00;49.60;;;;;;5058160;28;20201;-91
2023/05/28 08:46:57;;;;;;;3.63;1.60;;;21.10;47.70;;;;;;5076980;28;20205;-95
2023/05/28 08:49:31;;;;;;;2.75;1.70;;;21.10;41.80;;;;;;5063625;28;20207;-95
2023/05/28 08:52:02;;;;;;;5.28;1.70;;;21.10;36.40;;;;;;5067796;28;20292;-95
2023/05/28 08:54:30;;;;;;;3.05;1.52;;;21.10;32.70;;;;;;5067478;28;20177;-96
2023/05/28 08:56:58;;;;;;;4.93;2.20;;;21.20;37.90;;;;;;5065021;28;20189;-95
2023/05/28 08:59:27;;;;;;;6.10;2.00;;;21.30;39.40;;;;;;5064949;28;20197;-95
2023/05/28 09:01:54;;;;;;;4.72;1.85;;;21.30;39.60;;;;;;5062135;28;20659;-95
2023/05/28 09:04:21;;;;;;;3.53;1.50;;;21.40;32.80;;;;;;5061704;28;20220;-95
2023/05/28 09:06:51;;;;;;;3.72;1.90;;;21.40;28.70;;;;;;5069816;28;20252;-96
2023/05/28 09:09:20;;;;;;;4.30;1.65;;;21.40;30.90;;;;;;5071840;28;20197;-95
2023/05/28 09:11:48;;;;;;;3.17;1.88;;;21.40;33.80;;;;;;5061422;28;20215;-96
2023/05/28 09:14:17;;;;;;;5.40;1.80;;;21.50;34.40;;;;;;5063638;28;20197;-95
2023/05/28 09:16:45;;;;;;;5.05;1.55;;;21.50;55.90;;;;;;5067360;28;20253;-96
2023/05/28 09:19:16;;;;;;;4.30;1.95;;;21.60;31.00;;;;;;5071446;28;20198;-95
2023/05/28 09:21:53;;;;;;;8.30;2.10;;;21.60;50.90;;;;;;5066822;28;20224;-96
2023/05/28 09:24:22;;;;;;;3.40;1.95;;;21.50;30.40;;;;;;5061986;28;20241;-95
2023/05/28 09:26:50;;;;;;;2.83;1.88;;;21.60;27.40;;;;;;5072204;28;20659;-96
2023/05/28 09:29:17;;;;;;;3.42;1.65;;;21.70;15.10;;;;;;5078629;28;20192;-95
2023/05/28 09:31:44;;;;;;;3.15;1.70;;;21.70;12.20;;;;;;5072518;28;20196;-96
2023/05/28 09:34:11;;;;;;;2.78;1.98;;;21.70;16.10;;;;;;5070658;28;20199;-96
2023/05/28 09:36:38;;;;;;;5.45;2.30;;;21.60;21.60;;;;;;5065253;28;20196;-96
2023/05/28 09:39:08;;;;;;;6.43;2.00;;;21.60;18.60;;;;;;5070712;28;20200;-96
2023/05/28 09:41:40;;;;;;;7.25;2.80;;;21.60;19.00;;;;;;5056529;28;20219;-93
2023/05/28 09:44:07;;;;;;;6.03;1.63;;;21.60;21.80;;;;;;5063933;28;20201;-94
2023/05/28 09:46:35;;;;;;;3.33;1.60;;;21.70;20.30;;;;;;5055694;28;20303;-93
2023/05/28 09:49:03;;;;;;;4.53;1.90;;;21.80;21.60;;;;;;5055607;28;20204;-92
2023/05/28 09:51:32;;;;;;;3.65;1.88;;;21.90;20.90;;;;;;5059148;28;20194;-92
2023/05/28 09:54:00;;;;;;;5.57;1.77;;;22.00;21.30;;;;;;5065832;28;20204;-93
2023/05/28 09:56:31;;;;;;;2.88;2.20;;;22.10;21.10;;;;;;5069044;28;20192;-92
2023/05/28 09:59:00;;;;;;;4.65;1.80;;;22.20;19.50;;;;;;5061596;28;20184;-92
2023/05/28 10:01:32;;;;;;;3.03;1.60;;;22.20;19.00;;;;;;5069313;28;20201;-94
2023/05/28 10:04:03;;;;;;;3.50;2.15;;;22.20;16.10;;;;;;5070391;28;20192;-95
2023/05/28 10:06:33;;;;;;;3.30;1.67;;;22.10;16.20;;;;;;5061284;28;20209;-94
2023/05/28 10:09:01;;;;;;;1.98;1.40;;;22.10;16.00;;;;;;5071167;28;20187;-93
2023/05/28 10:11:30;;;;;;;5.32;1.88;;;22.20;13.50;;;;;;5075497;28;20228;-95
2023/05/28 10:14:00;;;;;;;6.45;3.70;;;22.20;13.00;;;;;;5075508;28;20204;-94
2023/05/28 10:16:27;;;;;;;4.78;1.90;;;22.20;11.70;;;;;;5074141;28;20211;-93
2023/05/28 10:18:56;;;;;;;8.63;6.57;;;22.30;9.40;;;;;;5071859;28;20196;-94
2023/05/28 10:21:23;;;;;;;5.50;2.00;;;22.30;10.00;;;;;;5061053;28;20221;-94
2023/05/28 10:23:50;;;;;;;5.07;2.45;;;22.40;10.60;;;;;;5070352;28;20625;-94
2023/05/28 10:26:18;;;;;;;3.85;1.80;;;22.40;9.60;;;;;;5067743;28;20209;-94
2023/05/28 10:28:45;;;;;;;5.70;2.05;;;22.40;7.30;;;;;;5075329;28;20196;-93
2023/05/28 10:31:14;;;;;;;3.03;1.90;;;22.40;6.40;;;;;;5069062;28;20197;-95
2023/05/28 10:33:41;;;;;;;4.88;1.90;;;22.40;4.90;;;;;;5069810;28;20200;-94
2023/05/28 10:36:12;;;;;;;3.22;1.88;;;22.40;7.10;;;;;;5063664;28;20551;-93
2023/05/28 10:38:46;;;;;;;1.88;1.58;;;22.30;6.20;;;;;;5055028;28;20696;-93
2023/05/28 10:41:18;;;;;;;4.00;1.50;;;22.20;5.90;;;;;;5056892;28;20210;-94
2023/05/28 10:43:46;;;;;;;3.17;1.70;;;22.20;5.70;;;;;;5059751;28;20188;-93
2023/05/28 10:46:17;;;;;;;10.90;1.73;;;22.20;4.10;;;;;;5067723;28;20220;-93
2023/05/28 10:49:11;;;;;;;6.20;1.77;;;22.10;4.70;;;;;;5070645;28;20196;-92
2023/05/28 10:52:00;;;;;;;5.45;1.73;;;22.00;4.30;;;;;;5062001;28;20754;-94
2023/05/28 10:54:44;;;;;;;2.65;1.70;;;21.90;2.60;;;;;;5064207;28;20577;-92
2023/05/28 10:57:13;;;;;;;3.42;1.90;;;21.80;2.30;;;;;;5062847;28;20658;-92
2023/05/28 10:59:45;;;;;;;4.35;1.75;;;21.90;1.90;;;;;;5063748;28;20200;-93
2023/05/28 11:02:13;;;;;;;3.88;1.70;;;21.90;2.60;;;;;;5069897;28;20204;-92
2023/05/28 11:04:40;;;;;;;4.18;2.58;;;22.00;1.50;;;;;;5054618;28;20199;-94
2023/05/28 11:07:08;;;;;;;5.15;1.70;;;22.10;1.00;;;;;;5054435;28;20240;-93
2023/05/28 11:09:35;;;;;;;3.20;1.63;;;22.10;1.00;;;;;;5068109;28;20192;-92
2023/05/28 11:12:03;;;;;;;3.53;2.33;;;22.20;1.00;;;;;;5072268;28;20543;-93
2023/05/28 11:14:34;;;;;;;3.92;2.00;;;22.20;1.00;;;;;;5072123;28;20203;-92
2023/05/28 11:17:01;;;;;;;2.55;1.88;;;22.20;1.00;;;;;;5057643;28;20278;-93
2023/05/28 11:19:30;;;;;;;2.45;1.70;;;22.30;1.00;;;;;;5060031;28;20193;-92
2023/05/28 11:21:56;;;;;;;3.42;1.60;;;22.40;1.00;;;;;;5059950;28;20232;-92
2023/05/28 17:59:20;;;;;;;3.72;1.65;;;25.40;1.00;;;;;;6109800;23;20204;31
2023/05/28 18:01:47;;;;;;;6.80;1.70;;;24.50;1.00;;;;;;4934604;29;20220;-89
2023/05/28 18:04:14;;;;;;;4.47;1.70;;;24.10;1.00;;;;;;4936165;29;20205;-89
2023/05/28 18:06:41;;;;;;;3.90;2.00;;;23.90;1.00;;;;;;4936013;29;20220;-88
2023/05/28 18:09:08;;;;;;;8.27;1.90;;;23.40;1.00;;;;;;4935787;29;20205;-89
2023/05/28 18:11:35;;;;;;;9.40;1.92;;;22.70;1.00;;;;;;4935335;29;20691;-89
2023/05/28 18:14:01;;;;;;;6.25;1.73;;;22.10;1.00;;;;;;4943549;29;20670;-90
2023/05/28 18:16:30;;;;;;;2.17;1.80;;;21.70;1.00;;;;;;4946008;29;20291;-91
2023/05/28 18:18:57;;;;;;;2.03;1.52;;;21.30;1.00;;;;;;4947851;29;20700;-90
2023/05/28 18:21:24;;;;;;;4.65;2.00;;;21.00;1.00;;;;;;4941804;29;20197;-91
2023/05/28 18:23:51;;;;;;;5.10;1.80;;;20.70;1.00;;;;;;4944972;29;20205;-90
2023/05/28 18:26:18;;;;;;;5.20;2.00;;;20.50;1.00;;;;;;4939872;29;20225;-90
2023/05/28 18:28:45;;;;;;;2.88;1.85;;;20.30;1.00;;;;;;4930307;29;20205;-90
2023/05/28 18:31:12;;;;;;;3.45;2.10;;;20.00;1.00;;;;;;4943894;29;20207;-90
2023/05/28 18:33:41;;;;;;;4.28;1.63;;;19.90;1.00;;;;;;4941626;29;20220;-91
2023/05/28 18:36:07;;;;;;;2.70;1.88;;;19.70;1.00;;;;;;4946168;29;20205;-91
2023/05/28 18:38:34;;;;;;;4.57;1.90;;;19.60;1.00;;;;;;4941589;29;20199;-90
2023/05/28 18:41:01;;;;;;;4.40;2.10;;;19.40;1.00;;;;;;4948028;29;20206;-91
2023/05/28 18:43:28;;;;;;;4.43;1.92;;;19.20;1.00;;;;;;4938454;29;20201;-90
2023/05/28 18:45:54;;;;;;;5.07;2.08;;;19.10;1.00;;;;;;4940000;29;20232;-91
2023/05/28 18:48:21;;;;;;;3.50;2.22;;;18.90;1.00;;;;;;4936766;29;20200;-91
2023/05/28 18:50:50;;;;;;;7.32;2.30;;;18.80;1.00;;;;;;4941687;29;20605;-92
2023/05/28 18:53:16;;;;;;;6.10;2.72;;;18.60;1.00;;;;;;4942158;29;20239;-91
2023/05/28 18:55:43;;;;;;;12.55;2.97;;;18.50;1.00;;;;;;4938190;29;20275;-91
2023/05/28 18:58:10;;;;;;;9.90;2.30;;;18.30;1.00;;;;;;4940490;29;20228;-91
2023/05/28 19:00:37;;;;;;;8.70;3.00;;;18.10;1.00;;;;;;4936110;29;20232;-91
2023/05/28 19:03:04;;;;;;;4.00;2.10;;;17.90;1.00;;;;;;4948140;29;20197;-92
2023/05/28 19:05:31;;;;;;;3.95;2.25;;;17.70;1.00;;;;;;4944651;29;20600;-92
2023/05/28 19:07:59;;;;;;;2.80;2.10;;;17.60;1.00;;;;;;4953003;29;20495;-92
2023/05/28 19:10:26;;;;;;;3.53;1.95;;;17.40;1.00;;;;;;4954121;29;20204;-92
2023/05/28 19:12:53;;;;;;;3.95;1.90;;;17.30;1.00;;;;;;4944552;29;20287;-92
2023/05/28 19:15:19;;;;;;;3.13;2.05;;;17.10;1.00;;;;;;4944950;29;20670;-92
2023/05/28 19:17:46;;;;;;;3.55;2.13;;;17.00;1.00;;;;;;4944208;29;20189;-92
2023/05/28 19:20:13;;;;;;;6.18;2.35;;;16.90;1.00;;;;;;4955525;29;20196;-92
2023/05/28 19:22:40;;;;;;;5.32;2.40;;;16.80;1.00;;;;;;4963193;29;20204;-92
2023/05/28 19:25:10;;;;;;;40.60;16.67;;;16.70;1.00;;;;;;4957682;29;20659;-91
2023/05/28 19:27:39;;;;;;;19.42;10.52;;;16.70;1.00;;;;;;4944081;29;20213;-92
2023/05/28 19:30:07;;;;;;;14.68;8.25;;;16.60;1.00;;;;;;4925500;29;20232;-91
2023/05/28 19:32:34;;;;;;;8.75;3.42;;;16.60;1.00;;;;;;4940043;29;20611;-91